Time;durP1;ratioP1;P1;durP2;ratioP2;P2;SDS_P1;SDS_P2;PMS_P1;PMS_P2;Temp;Humidity;BMP_temperature;BMP_pressure;BME280_temperature;BME280_humidity;BME280_pressure;Samples;Min_cycle;Max_cycle;Signal;HPM_P1;HPM_P2
2023/08/16 00:02:23;;;;;;;5.10;4.30;;;;;;;29.41;38.70;100993.52;103462;1288;61389;-80
2023/08/16 00:04:49;;;;;;;4.80;4.20;;;;;;;29.41;38.82;100992.44;103378;1288;61335;-80
2023/08/16 00:07:14;;;;;;;5.60;4.50;;;;;;;29.41;38.84;100989.17;103387;1290;61390;-80
2023/08/16 00:09:40;;;;;;;5.00;4.30;;;;;;;29.40;38.80;100983.64;103387;1288;61461;-80
2023/08/16 00:12:06;;;;;;;5.60;4.50;;;;;;;29.41;38.71;100984.29;103491;1287;61267;-79
2023/08/16 00:14:32;;;;;;;5.30;4.10;;;;;;;29.41;38.92;100983.77;103351;1287;61395;-81
2023/08/16 00:16:57;;;;;;;5.70;4.50;;;;;;;29.40;38.85;100980.20;103492;1288;61363;-81
2023/08/16 00:19:24;;;;;;;5.20;4.60;;;;;;;29.40;38.76;100978.35;103372;1287;62480;-81
2023/08/16 00:21:50;;;;;;;5.20;4.70;;;;;;;29.40;38.87;100972.27;103458;1289;61350;-81
2023/08/16 00:24:15;;;;;;;7.20;5.00;;;;;;;29.40;38.81;100965.54;103455;1287;61397;-81
2023/08/16 00:26:41;;;;;;;5.10;4.30;;;;;;;29.40;38.74;100958.67;103452;1286;61352;-80
2023/08/16 00:29:06;;;;;;;5.50;4.60;;;;;;;29.40;38.72;100955.94;103424;1288;61293;-80
2023/08/16 00:31:33;;;;;;;4.90;4.20;;;;;;;29.40;38.99;100951.55;103498;1287;62495;-80
2023/08/16 00:33:59;;;;;;;5.00;4.30;;;;;;;29.39;38.68;100946.17;103474;1286;61305;-80
2023/08/16 00:36:24;;;;;;;5.10;4.60;;;;;;;29.40;38.88;100941.95;103468;1287;61456;-80
2023/08/16 00:38:50;;;;;;;5.30;4.50;;;;;;;29.40;38.79;100936.92;103382;1290;61319;-80
2023/08/16 00:41:15;;;;;;;5.80;4.60;;;;;;;29.39;38.98;100936.21;103363;1285;61918;-80
2023/08/16 00:43:42;;;;;;;5.20;4.40;;;;;;;29.39;38.76;100938.21;103437;1287;61312;-80
2023/08/16 00:46:10;;;;;;;5.40;4.50;;;;;;;29.39;38.73;100940.94;103509;1286;61373;-80
2023/08/16 00:48:37;;;;;;;5.20;4.50;;;;;;;29.39;38.89;100935.69;103368;1293;61466;-80
2023/08/16 00:51:03;;;;;;;5.80;4.40;;;;;;;29.39;38.90;100933.17;103510;1287;61297;-80
2023/08/16 00:53:30;;;;;;;5.80;4.60;;;;;;;29.39;38.74;100931.91;103362;1288;61436;-80
2023/08/16 00:55:56;;;;;;;5.60;4.70;;;;;;;29.39;38.76;100930.66;103445;1288;61348;-80
2023/08/16 00:58:22;;;;;;;6.40;4.70;;;;;;;29.38;38.83;100934.50;103330;1287;61386;-80
2023/08/16 01:00:47;;;;;;;7.30;4.50;;;;;;;29.38;38.64;100937.23;103393;1285;61398;-80
2023/08/16 01:03:13;;;;;;;5.20;4.60;;;;;;;29.39;38.74;100942.13;103441;1290;62041;-80
2023/08/16 01:05:40;;;;;;;5.30;4.70;;;;;;;29.38;38.70;100943.80;103531;1286;62081;-80
2023/08/16 01:08:06;;;;;;;5.30;4.70;;;;;;;29.39;38.66;100942.11;103409;1287;61443;-80
2023/08/16 01:10:38;;;;;;;6.20;4.60;;;;;;;29.38;38.93;100938.14;103405;1289;61382;-80
2023/08/16 01:13:09;;;;;;;5.60;4.40;;;;;;;29.38;38.76;100940.90;103428;1286;65658;-80
2023/08/16 01:15:37;;;;;;;6.70;4.90;;;;;;;29.38;38.66;100938.77;103421;1290;61281;-79
2023/08/16 01:18:03;;;;;;;6.70;4.60;;;;;;;29.38;38.72;100938.76;103295;1287;62657;-80
2023/08/16 01:20:30;;;;;;;5.90;4.70;;;;;;;29.38;38.77;100938.58;103372;1288;63823;-80
2023/08/16 01:23:24;;;;;;;5.30;4.50;;;;;;;29.37;38.73;100937.90;103566;1285;61389;-80
2023/08/16 01:26:24;;;;;;;5.50;4.50;;;;;;;29.37;38.65;100941.55;103494;1288;61374;-80
2023/08/16 01:28:50;;;;;;;5.80;4.60;;;;;;;29.36;38.80;100938.54;103392;1287;61434;-80
2023/08/16 01:31:16;;;;;;;5.80;4.40;;;;;;;29.36;38.90;100948.12;103478;1287;61480;-80
2023/08/16 01:33:41;;;;;;;5.60;4.60;;;;;;;29.37;38.86;100957.17;103271;1287;61402;-80
2023/08/16 01:36:07;;;;;;;6.50;4.90;;;;;;;29.37;38.81;100963.87;103353;1286;61382;-80
2023/08/16 01:38:32;;;;;;;5.90;4.80;;;;;;;29.37;38.76;100962.24;103414;1290;61473;-80
2023/08/16 01:41:02;;;;;;;5.50;4.30;;;;;;;29.37;38.83;100959.14;103473;1287;61264;-80
2023/08/16 01:43:29;;;;;;;5.80;4.50;;;;;;;29.37;38.91;100972.03;103521;1290;63694;-80
2023/08/16 01:45:54;;;;;;;5.80;4.80;;;;;;;29.37;38.93;100986.54;103414;1288;61835;-80
2023/08/16 01:48:22;;;;;;;5.60;4.20;;;;;;;29.37;38.90;100996.33;103379;1292;61431;-80
2023/08/16 01:50:47;;;;;;;5.50;4.80;;;;;;;29.37;38.76;100998.84;103493;1290;61434;-79
2023/08/16 01:53:13;;;;;;;5.20;4.40;;;;;;;29.37;38.87;101006.63;103298;1288;62452;-79
2023/08/16 01:55:39;;;;;;;4.80;4.10;;;;;;;29.37;38.77;101012.46;103408;1290;61277;-80
2023/08/16 01:58:05;;;;;;;5.10;4.40;;;;;;;29.37;38.71;101022.77;103310;1288;61485;-79
2023/08/16 02:00:31;;;;;;;6.10;4.60;;;;;;;29.37;38.87;101030.05;103459;1287;61374;-80
2023/08/16 02:02:57;;;;;;;5.30;4.40;;;;;;;29.37;38.78;101026.38;103367;1288;61395;-80
2023/08/16 02:05:23;;;;;;;5.60;4.30;;;;;;;29.37;38.69;101023.34;103038;1293;63817;-80
2023/08/16 02:07:48;;;;;;;6.10;4.40;;;;;;;29.37;38.88;101013.87;103398;1288;61450;-80
2023/08/16 02:10:14;;;;;;;5.30;4.60;;;;;;;29.36;38.76;100998.70;103414;1292;61405;-80
2023/08/16 02:12:40;;;;;;;4.90;4.40;;;;;;;29.36;38.95;100982.59;103312;1286;61911;-80
2023/08/16 02:15:06;;;;;;;7.40;4.50;;;;;;;29.37;38.81;100970.08;103483;1288;61421;-80
2023/08/16 02:17:33;;;;;;;5.80;4.80;;;;;;;29.36;39.09;100954.92;103363;1287;63864;-80
2023/08/16 02:19:58;;;;;;;5.40;4.40;;;;;;;29.36;39.03;100947.14;103431;1289;66270;-80
2023/08/16 02:22:24;;;;;;;5.50;4.70;;;;;;;29.36;38.91;100944.70;103382;1285;61456;-80
2023/08/16 02:24:51;;;;;;;5.40;4.40;;;;;;;29.36;38.84;100909.20;103451;1287;61403;-80
2023/08/16 02:27:17;;;;;;;4.80;4.10;;;;;;;29.36;38.92;100873.17;103651;1286;61284;-80
2023/08/16 02:29:42;;;;;;;6.70;4.70;;;;;;;29.36;38.77;100870.83;103488;1290;61356;-80
2023/08/16 02:32:08;;;;;;;5.00;4.30;;;;;;;29.35;38.82;100889.90;103409;1288;61401;-80
2023/08/16 02:34:34;;;;;;;5.30;4.40;;;;;;;29.35;38.76;100897.67;103455;1290;61344;-79
2023/08/16 02:36:59;;;;;;;5.80;4.20;;;;;;;29.35;38.80;100909.48;103258;1287;61396;-79
2023/08/16 02:39:25;;;;;;;6.00;4.40;;;;;;;29.35;38.82;100921.40;103346;1290;61389;-80
2023/08/16 02:41:53;;;;;;;4.90;4.40;;;;;;;29.35;38.72;100927.79;104184;1288;61392;-80
2023/08/16 02:44:19;;;;;;;5.30;4.40;;;;;;;29.35;38.68;100907.47;104276;1287;61326;-81
2023/08/16 02:46:44;;;;;;;5.20;4.60;;;;;;;29.36;38.71;100895.13;104120;1290;61459;-80
2023/08/16 02:49:10;;;;;;;5.10;4.40;;;;;;;29.36;38.91;100885.15;103588;1288;61386;-80
2023/08/16 02:51:35;;;;;;;5.80;4.90;;;;;;;29.36;38.81;100911.79;103294;1286;61942;-79
2023/08/16 02:54:01;;;;;;;5.50;4.60;;;;;;;29.36;38.91;100937.48;103469;1292;61427;-79
2023/08/16 02:56:26;;;;;;;6.00;4.60;;;;;;;29.37;38.76;100951.36;103359;1286;61331;-79
2023/08/16 02:58:52;;;;;;;5.70;4.60;;;;;;;29.37;38.79;100940.45;103439;1288;62434;-79
2023/08/16 03:01:17;;;;;;;5.60;4.50;;;;;;;29.37;38.65;100922.16;103331;1285;61333;-79
2023/08/16 03:03:43;;;;;;;5.80;4.50;;;;;;;29.37;38.85;100902.79;103297;1293;62224;-79
2023/08/16 03:06:08;;;;;;;5.40;4.40;;;;;;;29.36;38.97;100895.41;103401;1288;61393;-79
2023/08/16 03:08:34;;;;;;;5.30;4.50;;;;;;;29.36;38.83;100888.38;103249;1291;61965;-79
2023/08/16 03:10:59;;;;;;;5.60;4.60;;;;;;;29.36;38.91;100887.82;103446;1288;61376;-79
2023/08/16 03:13:25;;;;;;;4.90;4.20;;;;;;;29.36;38.82;100917.77;103380;1290;61418;-79
2023/08/16 03:15:51;;;;;;;5.90;4.60;;;;;;;29.35;38.86;100936.13;103416;1287;61393;-79
2023/08/16 03:18:16;;;;;;;6.20;4.80;;;;;;;29.35;38.82;100948.88;103429;1285;61401;-79
2023/08/16 03:20:42;;;;;;;5.20;4.50;;;;;;;29.35;38.61;100970.58;103414;1288;61402;-79
2023/08/16 03:23:07;;;;;;;5.30;4.20;;;;;;;29.35;38.72;100995.77;103450;1290;61381;-79
2023/08/16 03:25:33;;;;;;;5.80;4.40;;;;;;;29.35;38.85;101001.40;103431;1288;61300;-79
2023/08/16 03:27:59;;;;;;;5.00;4.20;;;;;;;29.34;38.93;101004.19;103433;1287;61398;-80
2023/08/16 03:30:25;;;;;;;5.50;4.40;;;;;;;29.34;38.89;100990.05;103403;1288;61395;-80
2023/08/16 03:32:53;;;;;;;6.00;4.20;;;;;;;29.34;38.73;100979.71;103595;1285;61337;-80
2023/08/16 03:35:18;;;;;;;5.70;4.40;;;;;;;29.34;39.00;100970.31;103665;1288;61271;-80
2023/08/16 03:37:44;;;;;;;5.70;4.10;;;;;;;29.34;38.95;100961.61;103478;1285;62045;-80
2023/08/16 03:40:10;;;;;;;5.20;4.20;;;;;;;29.34;39.00;100977.06;103410;1290;61414;-79
2023/08/16 03:42:35;;;;;;;6.10;4.40;;;;;;;29.34;38.85;100978.88;103539;1290;61811;-80
2023/08/16 03:45:01;;;;;;;5.80;4.30;;;;;;;29.34;38.82;100975.98;103663;1286;61317;-80
2023/08/16 03:47:26;;;;;;;6.90;4.20;;;;;;;29.35;38.91;100981.35;103550;1289;61398;-79
2023/08/16 03:49:52;;;;;;;5.60;4.10;;;;;;;29.34;39.11;100974.46;103616;1289;61387;-80
2023/08/16 03:52:18;;;;;;;5.60;4.40;;;;;;;29.34;38.84;100980.64;103949;1284;62003;-80
2023/08/16 03:54:43;;;;;;;5.20;4.10;;;;;;;29.34;38.94;100982.27;104220;1289;61297;-80
2023/08/16 03:57:11;;;;;;;5.10;4.40;;;;;;;29.34;38.89;100988.98;103642;1284;61372;-80
2023/08/16 03:59:36;;;;;;;6.20;4.20;;;;;;;29.35;38.93;100977.90;103813;1286;61207;-80
2023/08/16 04:02:03;;;;;;;7.50;4.60;;;;;;;29.35;38.97;100966.20;103650;1290;61447;-80
2023/08/16 04:04:30;;;;;;;4.90;4.40;;;;;;;29.35;38.85;100940.65;103562;1284;61386;-80
2023/08/16 04:06:56;;;;;;;5.80;4.40;;;;;;;29.35;38.97;100927.98;103452;1290;61395;-80
2023/08/16 04:09:21;;;;;;;5.50;4.00;;;;;;;29.35;38.99;100915.33;103527;1289;61408;-79
2023/08/16 04:11:47;;;;;;;6.00;4.00;;;;;;;29.35;38.89;100925.48;103601;1287;61894;-80
2023/08/16 04:14:12;;;;;;;5.40;4.40;;;;;;;29.34;38.78;100940.91;103418;1285;65686;-79
2023/08/16 04:16:38;;;;;;;5.60;4.20;;;;;;;29.35;39.01;100944.09;103380;1285;61427;-79
2023/08/16 04:19:03;;;;;;;5.20;4.00;;;;;;;29.35;38.90;100949.01;103416;1290;61485;-79
2023/08/16 04:21:29;;;;;;;5.20;4.10;;;;;;;29.35;38.94;100944.69;103489;1284;62585;-80
2023/08/16 04:23:55;;;;;;;5.80;4.30;;;;;;;29.34;38.83;100938.98;103567;1290;61410;-79
2023/08/16 04:26:21;;;;;;;4.70;4.10;;;;;;;29.33;38.62;100952.36;103353;1285;66758;-79
2023/08/16 04:28:47;;;;;;;5.40;4.30;;;;;;;29.33;38.69;100953.28;103437;1285;61328;-79
2023/08/16 04:31:12;;;;;;;6.00;4.50;;;;;;;29.32;38.77;100949.91;103362;1285;61446;-80
2023/08/16 04:33:38;;;;;;;7.00;4.30;;;;;;;29.31;38.74;100945.07;103540;1289;61503;-80
2023/08/16 04:36:03;;;;;;;7.30;4.10;;;;;;;29.31;38.71;100942.38;103466;1290;61485;-79
2023/08/16 04:38:29;;;;;;;4.90;4.10;;;;;;;29.30;38.65;100947.00;103563;1284;61273;-79
2023/08/16 04:40:54;;;;;;;5.30;4.20;;;;;;;29.29;38.77;100959.06;103470;1285;61373;-79
2023/08/16 04:43:21;;;;;;;7.10;4.10;;;;;;;29.29;38.56;100968.34;103608;1289;61405;-79
2023/08/16 04:45:47;;;;;;;7.10;4.40;;;;;;;29.28;38.55;100977.48;103543;1288;61380;-79
2023/08/16 04:48:13;;;;;;;6.40;4.40;;;;;;;29.28;38.54;100987.47;103474;1285;61379;-79
2023/08/16 04:50:39;;;;;;;5.50;4.10;;;;;;;29.28;38.32;100998.88;103517;1290;61374;-79
2023/08/16 04:53:04;;;;;;;8.20;4.10;;;;;;;29.27;38.43;101009.83;103530;1285;61417;-80
2023/08/16 04:55:30;;;;;;;6.40;4.40;;;;;;;29.27;38.60;101012.55;103552;1290;62570;-79
2023/08/16 04:57:55;;;;;;;5.90;4.00;;;;;;;29.27;38.47;101006.22;103477;1290;63840;-79
2023/08/16 05:00:21;;;;;;;8.80;4.20;;;;;;;29.27;38.51;100998.20;103437;1285;62591;-79
2023/08/16 05:02:46;;;;;;;6.20;4.20;;;;;;;29.27;38.28;100994.27;103510;1285;61395;-79
2023/08/16 05:05:12;;;;;;;11.40;4.00;;;;;;;29.26;38.29;100989.97;103348;1291;61411;-79
2023/08/16 05:07:38;;;;;;;6.50;4.20;;;;;;;29.27;38.34;100989.39;103548;1284;62459;-79
2023/08/16 05:10:05;;;;;;;5.70;4.20;;;;;;;29.26;38.25;100994.88;103525;1284;63921;-79
2023/08/16 05:12:30;;;;;;;6.50;3.80;;;;;;;29.26;38.09;100985.82;103812;1285;65662;-80
2023/08/16 05:14:56;;;;;;;6.50;4.10;;;;;;;29.26;38.17;100975.65;103547;1285;61453;-80
2023/08/16 05:17:21;;;;;;;5.60;4.10;;;;;;;29.26;37.97;100985.65;103387;1291;62412;-79
2023/08/16 05:19:47;;;;;;;7.10;4.50;;;;;;;29.25;37.94;101000.18;103576;1285;61915;-80
2023/08/16 05:22:13;;;;;;;6.20;4.10;;;;;;;29.26;37.90;101004.66;103456;1290;61405;-80
2023/08/16 05:24:39;;;;;;;6.50;3.90;;;;;;;29.27;38.04;101008.80;103604;1288;61331;-80
2023/08/16 05:27:04;;;;;;;6.50;4.10;;;;;;;29.28;38.04;101021.01;103688;1290;61376;-80
2023/08/16 05:29:30;;;;;;;4.80;3.60;;;;;;;29.27;38.06;101036.08;103660;1286;61387;-80
2023/08/16 05:31:57;;;;;;;7.70;3.90;;;;;;;29.28;38.03;101056.90;103479;1284;62501;-79
2023/08/16 05:34:22;;;;;;;6.00;3.90;;;;;;;29.28;38.15;101048.67;103587;1285;61373;-79
2023/08/16 05:36:50;;;;;;;5.30;4.10;;;;;;;29.30;37.89;101043.27;103495;1290;61355;-79
2023/08/16 05:39:15;;;;;;;5.90;4.00;;;;;;;29.30;37.69;101047.77;103512;1285;61304;-79
2023/08/16 05:41:41;;;;;;;5.60;4.00;;;;;;;29.31;37.89;101050.89;103557;1290;61374;-80
2023/08/16 05:44:07;;;;;;;6.90;4.30;;;;;;;29.33;37.99;101058.05;103910;1290;61323;-80
2023/08/16 05:46:32;;;;;;;5.70;4.10;;;;;;;29.33;37.76;101073.42;103814;1285;61419;-80
2023/08/16 05:49:00;;;;;;;7.10;4.20;;;;;;;29.34;37.75;101084.23;103327;1294;61469;-79
2023/08/16 05:51:26;;;;;;;6.70;3.90;;;;;;;29.34;37.79;101095.79;103595;1290;61386;-79
2023/08/16 05:53:52;;;;;;;6.50;4.00;;;;;;;29.34;37.80;101098.84;103518;1288;61378;-80
2023/08/16 05:56:18;;;;;;;7.60;3.90;;;;;;;29.33;37.70;101093.90;103284;1286;61369;-79
2023/08/16 05:58:44;;;;;;;10.50;3.90;;;;;;;29.31;37.65;101090.80;103750;1289;61382;-80
2023/08/16 06:01:10;;;;;;;6.00;3.80;;;;;;;29.30;37.74;101092.20;103720;1289;61280;-80
2023/08/16 06:03:36;;;;;;;9.20;3.60;;;;;;;29.29;37.46;101090.70;103765;1284;61368;-80
2023/08/16 06:06:02;;;;;;;7.90;3.80;;;;;;;29.27;37.47;101084.01;103679;1290;61388;-80
2023/08/16 06:08:27;;;;;;;6.80;3.60;;;;;;;29.25;37.40;101084.45;103722;1292;61446;-80
2023/08/16 06:10:53;;;;;;;7.90;3.90;;;;;;;29.24;37.47;101086.95;103689;1288;61286;-80
2023/08/16 06:13:19;;;;;;;8.80;3.80;;;;;;;29.23;37.40;101080.14;103510;1285;62168;-79
2023/08/16 06:15:45;;;;;;;7.60;4.00;;;;;;;29.22;37.42;101082.44;103621;1285;61305;-80
2023/08/16 06:18:10;;;;;;;7.50;3.80;;;;;;;29.21;37.41;101081.96;103641;1286;61377;-80
2023/08/16 06:20:36;;;;;;;7.10;3.90;;;;;;;29.20;37.65;101083.54;103578;1288;61393;-80
2023/08/16 06:23:02;;;;;;;5.30;3.40;;;;;;;29.21;37.42;101083.52;103931;1287;61411;-80
2023/08/16 06:25:27;;;;;;;5.90;3.70;;;;;;;29.20;37.55;101080.63;103454;1288;61385;-79
2023/08/16 06:27:53;;;;;;;8.00;3.80;;;;;;;29.20;37.80;101066.15;103765;1285;61395;-80
2023/08/16 06:30:18;;;;;;;8.50;3.60;;;;;;;29.20;37.81;101040.25;103955;1285;61369;-80
2023/08/16 06:32:45;;;;;;;7.00;3.60;;;;;;;29.19;37.51;101019.11;103575;1290;61391;-79
2023/08/16 06:35:11;;;;;;;7.80;3.80;;;;;;;29.19;37.45;101024.98;103543;1285;61351;-80
2023/08/16 06:37:38;;;;;;;6.80;3.60;;;;;;;29.18;37.38;101059.81;103570;1290;61481;-81
2023/08/16 06:40:04;;;;;;;11.10;4.10;;;;;;;29.19;37.61;101073.92;103253;1289;333629;-79
2023/08/16 06:42:31;;;;;;;6.90;3.90;;;;;;;29.19;37.58;101055.55;104772;1284;61469;-80
2023/08/16 06:44:57;;;;;;;11.50;4.30;;;;;;;29.21;37.67;101036.38;103715;1284;62057;-79
2023/08/16 06:47:23;;;;;;;17.60;4.90;;;;;;;29.21;37.79;101037.44;103644;1290;61327;-80
2023/08/16 06:49:48;;;;;;;17.80;4.30;;;;;;;29.22;37.65;101048.73;103757;1287;61403;-79
2023/08/16 06:52:14;;;;;;;14.80;4.20;;;;;;;29.23;37.86;101041.19;103537;1290;65754;-79
2023/08/16 06:54:42;;;;;;;8.40;4.50;;;;;;;29.23;37.74;101033.52;103531;1285;61386;-79
2023/08/16 06:57:09;;;;;;;13.70;4.20;;;;;;;29.23;37.64;101033.41;103503;1285;61302;-79
2023/08/16 06:59:36;;;;;;;12.90;3.80;;;;;;;29.23;37.88;101048.66;103824;1289;63961;-79
2023/08/16 07:02:04;;;;;;;12.40;4.30;;;;;;;29.22;37.84;101081.11;103713;1287;66088;-79
2023/08/16 07:04:29;;;;;;;9.50;4.00;;;;;;;29.22;38.16;101098.71;103587;1288;61446;-79
2023/08/16 07:06:55;;;;;;;11.50;4.20;;;;;;;29.23;37.77;101104.77;103552;1285;61373;-79
2023/08/16 07:09:22;;;;;;;10.50;4.10;;;;;;;29.24;37.99;101106.38;103676;1285;61357;-79
2023/08/16 07:11:48;;;;;;;10.00;4.10;;;;;;;29.24;38.28;101100.91;103763;1290;62002;-80
2023/08/16 07:14:13;;;;;;;10.10;4.40;;;;;;;29.24;38.04;101112.70;103682;1287;62519;-79
2023/08/16 07:16:39;;;;;;;8.30;4.30;;;;;;;29.24;38.24;101119.77;103518;1291;61320;-80
2023/08/16 07:19:08;;;;;;;7.70;4.20;;;;;;;29.23;38.41;101114.02;103424;1290;61398;-80
2023/08/16 07:21:35;;;;;;;13.60;4.80;;;;;;;29.23;38.60;101098.45;103567;1291;61368;-80
2023/08/16 07:24:02;;;;;;;9.10;4.20;;;;;;;29.22;38.57;101093.45;103725;1289;61437;-80
2023/08/16 07:26:27;;;;;;;11.60;4.30;;;;;;;29.22;38.73;101096.54;103490;1290;61484;-80
2023/08/16 07:28:53;;;;;;;9.20;4.10;;;;;;;29.22;38.64;101089.20;103974;1284;61269;-80
2023/08/16 07:31:18;;;;;;;10.60;4.80;;;;;;;29.20;38.66;101071.93;103596;1288;61520;-79
2023/08/16 07:33:44;;;;;;;9.00;4.20;;;;;;;29.18;38.84;101059.44;103716;1285;61387;-80
2023/08/16 07:36:09;;;;;;;6.60;4.40;;;;;;;29.17;39.01;101053.24;103411;1286;61310;-79
2023/08/16 07:38:36;;;;;;;10.90;4.80;;;;;;;29.15;39.03;101043.83;103539;1290;61372;-79
2023/08/16 07:41:01;;;;;;;8.60;4.30;;;;;;;29.15;38.81;101049.48;103474;1287;62436;-79
2023/08/16 07:43:31;;;;;;;10.10;4.30;;;;;;;29.14;38.73;101053.41;103470;1290;61386;-79
2023/08/16 07:45:56;;;;;;;7.90;4.50;;;;;;;29.13;38.76;101039.58;103527;1286;62110;-79
2023/08/16 07:48:22;;;;;;;7.30;4.60;;;;;;;29.13;38.90;101024.16;103476;1290;62459;-80
2023/08/16 07:50:49;;;;;;;12.10;4.40;;;;;;;29.11;38.84;101004.58;103495;1286;61437;-80
2023/08/16 07:53:14;;;;;;;9.80;4.50;;;;;;;29.10;39.11;100989.96;103616;1290;62511;-80
2023/08/16 07:55:40;;;;;;;8.60;4.30;;;;;;;29.09;38.88;100971.09;103516;1285;61499;-80
2023/08/16 07:58:05;;;;;;;9.00;4.70;;;;;;;29.08;38.99;100974.42;103481;1287;61412;-79
2023/08/16 08:00:31;;;;;;;9.70;4.90;;;;;;;29.08;38.71;100983.45;103559;1285;62023;-79
2023/08/16 08:02:57;;;;;;;11.60;4.80;;;;;;;29.09;38.83;100980.46;103496;1291;63789;-80
2023/08/16 08:05:26;;;;;;;9.90;4.70;;;;;;;29.09;38.96;100977.35;103433;1285;61415;-79
2023/08/16 08:07:52;;;;;;;8.40;4.70;;;;;;;29.10;38.70;100982.02;103559;1285;61765;-81
2023/08/16 08:10:18;;;;;;;9.40;4.50;;;;;;;29.10;38.76;100986.36;103655;1285;61287;-79
2023/08/16 08:12:45;;;;;;;8.90;4.90;;;;;;;29.11;39.00;100987.52;103534;1287;61869;-80
2023/08/16 08:15:11;;;;;;;5.90;4.30;;;;;;;29.12;38.70;100984.67;103446;1290;61523;-80
2023/08/16 08:17:36;;;;;;;11.10;4.90;;;;;;;29.14;38.71;100988.34;103510;1289;61385;-80
2023/08/16 08:20:04;;;;;;;7.80;4.40;;;;;;;29.15;38.82;100997.80;103512;1301;61365;-80
2023/08/16 08:22:29;;;;;;;7.60;4.60;;;;;;;29.15;38.94;101004.48;103559;1286;61384;-80
2023/08/16 08:24:55;;;;;;;7.20;4.50;;;;;;;29.17;38.81;101009.61;103560;1287;61285;-80
2023/08/16 08:27:20;;;;;;;10.40;4.80;;;;;;;29.18;39.04;101005.16;103787;1289;61867;-80
2023/08/16 08:29:47;;;;;;;8.80;4.80;;;;;;;29.18;38.92;101004.05;103487;1291;61389;-80
2023/08/16 08:32:12;;;;;;;10.10;4.50;;;;;;;29.19;38.96;101009.19;103537;1291;61413;-79
2023/08/16 08:34:38;;;;;;;7.90;4.50;;;;;;;29.20;39.14;101011.41;103369;1292;61392;-79
2023/08/16 08:37:04;;;;;;;10.60;4.60;;;;;;;29.21;39.18;101017.31;103504;1290;61457;-79
2023/08/16 08:39:30;;;;;;;6.90;4.50;;;;;;;29.22;39.18;101021.75;103673;1286;61361;-80
2023/08/16 08:41:55;;;;;;;7.70;4.50;;;;;;;29.22;39.05;101019.14;104177;1289;61433;-80
2023/08/16 08:44:21;;;;;;;8.10;4.80;;;;;;;29.24;39.11;101027.53;103690;1288;61387;-79
2023/08/16 08:46:47;;;;;;;9.50;4.50;;;;;;;29.24;39.25;101026.56;103892;1286;61385;-80
2023/08/16 08:49:15;;;;;;;9.20;4.70;;;;;;;29.25;39.23;101031.55;103551;1291;65948;-80
2023/08/16 08:51:41;;;;;;;8.40;4.90;;;;;;;29.26;39.57;101022.80;103560;1290;61285;-80
2023/08/16 08:54:08;;;;;;;9.10;4.90;;;;;;;29.27;39.51;101011.66;103654;1286;61280;-80
2023/08/16 08:56:33;;;;;;;8.40;4.70;;;;;;;29.27;39.54;101015.12;103691;1291;62661;-80
2023/08/16 08:59:02;;;;;;;9.50;5.10;;;;;;;29.28;39.48;101018.98;103704;1291;61988;-80
2023/08/16 09:01:28;;;;;;;7.20;4.70;;;;;;;29.29;39.49;101019.66;103855;1290;61295;-80
2023/08/16 09:03:53;;;;;;;7.10;4.60;;;;;;;29.30;39.54;101020.59;103845;1286;61272;-80
2023/08/16 09:06:20;;;;;;;7.40;4.60;;;;;;;29.31;39.52;101023.41;103853;1287;61438;-80
2023/08/16 09:08:45;;;;;;;6.80;4.60;;;;;;;29.31;39.38;101019.59;103744;1286;61869;-80
2023/08/16 09:11:12;;;;;;;7.70;4.80;;;;;;;29.32;39.60;101026.02;103977;1291;61360;-80
2023/08/16 09:13:38;;;;;;;7.30;4.70;;;;;;;29.33;39.33;101023.01;103879;1291;61398;-80
2023/08/16 09:16:04;;;;;;;7.50;4.40;;;;;;;29.34;39.47;101022.52;103846;1289;62517;-81
2023/08/16 09:18:30;;;;;;;6.00;4.60;;;;;;;29.35;39.42;101014.48;104008;1287;61420;-80
2023/08/16 09:20:59;;;;;;;8.30;4.60;;;;;;;29.36;39.48;101008.59;103753;1287;65893;-80
2023/08/16 09:23:25;;;;;;;8.20;4.50;;;;;;;29.36;39.49;101005.80;104027;1286;61277;-80
2023/08/16 09:25:51;;;;;;;9.10;4.40;;;;;;;29.37;39.38;101002.11;103739;1286;61350;-81
2023/08/16 09:28:17;;;;;;;8.00;4.40;;;;;;;29.38;39.37;100999.33;103729;1290;61377;-81
2023/08/16 09:30:42;;;;;;;9.30;4.50;;;;;;;29.38;39.37;100996.54;103725;1287;61406;-81
2023/08/16 09:33:13;;;;;;;6.00;4.60;;;;;;;29.39;39.20;100997.56;103998;1289;61376;-81
2023/08/16 09:35:45;;;;;;;5.60;4.10;;;;;;;29.39;39.35;101003.84;103725;1290;61339;-80
2023/08/16 09:38:13;;;;;;;8.60;4.80;;;;;;;29.40;39.20;101000.50;103794;1292;63982;-81
2023/08/16 09:40:47;;;;;;;11.10;4.70;;;;;;;29.41;39.28;100995.87;105398;1285;65789;-80
2023/08/16 09:43:12;;;;;;;7.40;4.80;;;;;;;29.42;39.29;100996.36;103901;1289;61209;-80
2023/08/16 09:45:38;;;;;;;7.90;4.50;;;;;;;29.43;39.37;101007.66;104150;1290;61353;-81
2023/08/16 09:48:04;;;;;;;8.60;4.50;;;;;;;29.44;39.35;101010.65;104433;1291;59362;-82
2023/08/16 09:50:34;;;;;;;8.30;4.30;;;;;;;29.45;39.12;101003.85;103808;1290;61462;-81
2023/08/16 09:53:04;;;;;;;7.30;4.50;;;;;;;29.46;39.03;100998.48;104076;1287;61335;-81
2023/08/16 09:55:32;;;;;;;6.60;4.60;;;;;;;29.46;39.17;100991.41;103573;1286;61309;-81
2023/08/16 09:57:59;;;;;;;6.60;4.40;;;;;;;29.47;39.09;100997.48;103802;1290;63583;-82
2023/08/16 10:00:27;;;;;;;5.30;4.40;;;;;;;29.48;39.08;100995.95;103916;1289;61378;-79
2023/08/16 10:02:53;;;;;;;7.00;4.60;;;;;;;29.48;39.03;100998.43;103874;1284;61546;-82
2023/08/16 10:05:19;;;;;;;6.20;4.50;;;;;;;29.48;38.77;101002.24;103737;1285;61319;-80
2023/08/16 10:07:47;;;;;;;6.40;4.30;;;;;;;29.49;38.97;101012.86;103979;1285;61953;-81
2023/08/16 10:10:13;;;;;;;8.00;4.80;;;;;;;29.49;38.93;101022.67;103799;1286;65834;-81
2023/08/16 10:12:39;;;;;;;6.60;4.50;;;;;;;29.49;38.88;101028.77;103912;1290;61366;-81
2023/08/16 10:15:05;;;;;;;6.20;4.70;;;;;;;29.49;38.91;101024.21;103950;1287;61380;-81
2023/08/16 10:17:32;;;;;;;9.10;5.00;;;;;;;29.50;38.77;101014.56;103818;1285;61416;-81
2023/08/16 10:20:04;;;;;;;6.00;4.60;;;;;;;29.50;38.76;101009.80;103819;1290;61364;-81
2023/08/16 10:22:35;;;;;;;6.50;4.30;;;;;;;29.50;38.78;101005.77;103760;1289;62219;-81
2023/08/16 10:25:06;;;;;;;6.60;4.40;;;;;;;29.51;38.66;101006.46;103772;1289;61478;-81
2023/08/16 10:27:32;;;;;;;7.40;4.40;;;;;;;29.51;38.83;101003.02;103723;1285;63646;-81
2023/08/16 10:29:59;;;;;;;7.00;4.60;;;;;;;29.51;38.58;101008.96;103615;1290;61435;-81
2023/08/16 10:32:25;;;;;;;7.50;4.50;;;;;;;29.51;38.54;101016.23;103705;1285;62071;-81
2023/08/16 10:34:54;;;;;;;6.60;4.50;;;;;;;29.51;38.49;100998.29;103641;1285;61420;-81
2023/08/16 10:37:21;;;;;;;9.80;4.30;;;;;;;29.50;38.58;100985.84;103760;1290;63851;-80
2023/08/16 10:39:50;;;;;;;6.90;4.60;;;;;;;29.51;38.39;100984.68;103468;1285;65703;-81
2023/08/16 10:42:15;;;;;;;7.10;4.60;;;;;;;29.51;38.39;100980.70;103434;1286;62010;-81
2023/08/16 10:44:50;;;;;;;5.80;4.70;;;;;;;29.51;38.45;100986.31;103371;1285;61432;-80
2023/08/16 10:47:26;;;;;;;5.70;4.10;;;;;;;29.50;38.50;100978.05;103540;1289;63738;-80
2023/08/16 10:49:52;;;;;;;7.00;4.40;;;;;;;29.51;38.42;100979.31;103559;1284;65772;-80
2023/08/16 10:52:29;;;;;;;6.80;4.50;;;;;;;29.51;38.37;100979.28;103668;1284;61414;-81
2023/08/16 10:54:55;;;;;;;5.70;4.60;;;;;;;29.49;38.22;100981.06;103630;1285;61290;-81
2023/08/16 10:57:27;;;;;;;6.20;4.30;;;;;;;29.50;38.51;100987.54;103701;1287;62294;-80
2023/08/16 11:00:07;;;;;;;6.40;4.40;;;;;;;29.50;38.59;100974.08;103725;1286;65878;-80
2023/08/16 11:02:35;;;;;;;5.80;4.50;;;;;;;29.50;38.45;100971.59;103671;1287;61969;-80
2023/08/16 11:05:01;;;;;;;6.10;4.40;;;;;;;29.50;38.26;100976.85;104010;1285;61306;-80
2023/08/16 11:07:28;;;;;;;5.70;4.40;;;;;;;29.50;38.16;100976.48;103384;1285;61477;-80
2023/08/16 11:10:00;;;;;;;5.70;4.60;;;;;;;29.50;38.14;100983.55;103740;1290;65685;-81
2023/08/16 11:12:34;;;;;;;7.90;4.20;;;;;;;29.51;38.35;100984.91;104086;1284;61172;-80
2023/08/16 11:15:00;;;;;;;6.60;4.00;;;;;;;29.51;38.21;100991.45;104078;1285;61285;-80